sensor_id;sensor_type;location;lat;lon;timestamp;temperature;humidity
24262;DHT22;12385;51.412;5.540;2023-02-20T00:01:20;5.80;99.90
24262;DHT22;12385;51.412;5.540;2023-02-20T00:03:46;5.80;99.90
24262;DHT22;12385;51.412;5.540;2023-02-20T00:06:11;5.90;99.90
24262;DHT22;12385;51.412;5.540;2023-02-20T00:08:36;5.90;99.90
24262;DHT22;12385;51.412;5.540;2023-02-20T00:11:02;5.90;99.90
24262;DHT22;12385;51.412;5.540;2023-02-20T00:13:28;6.00;99.90
24262;DHT22;12385;51.412;5.540;2023-02-20T00:15:53;6.00;99.90
24262;DHT22;12385;51.412;5.540;2023-02-20T00:18:19;6.00;99.90
24262;DHT22;12385;51.412;5.540;2023-02-20T00:20:45;6.00;99.90
24262;DHT22;12385;51.412;5.540;2023-02-20T00:23:10;6.00;99.90
24262;DHT22;12385;51.412;5.540;2023-02-20T00:25:36;6.00;99.90
24262;DHT22;12385;51.412;5.540;2023-02-20T00:28:01;6.10;99.90
24262;DHT22;12385;51.412;5.540;2023-02-20T00:30:27;6.00;99.90
24262;DHT22;12385;51.412;5.540;2023-02-20T00:32:53;6.00;99.90
24262;DHT22;12385;51.412;5.540;2023-02-20T00:35:19;6.00;99.90
24262;DHT22;12385;51.412;5.540;2023-02-20T00:37:45;5.90;99.90
24262;DHT22;12385;51.412;5.540;2023-02-20T00:40:11;5.90;99.90
24262;DHT22;12385;51.412;5.540;2023-02-20T00:42:37;5.90;99.90
24262;DHT22;12385;51.412;5.540;2023-02-20T00:45:03;5.90;99.90
24262;DHT22;12385;51.412;5.540;2023-02-20T00:47:28;5.90;99.90
24262;DHT22;12385;51.412;5.540;2023-02-20T00:49:54;5.90;99.90
24262;DHT22;12385;51.412;5.540;2023-02-20T00:52:19;5.80;99.90
24262;DHT22;12385;51.412;5.540;2023-02-20T00:54:45;5.90;99.90
24262;DHT22;12385;51.412;5.540;2023-02-20T00:57:10;5.80;99.90
24262;DHT22;12385;51.412;5.540;2023-02-20T00:59:36;5.80;99.90
24262;DHT22;12385;51.412;5.540;2023-02-20T01:02:01;5.80;99.90
24262;DHT22;12385;51.412;5.540;2023-02-20T01:04:27;5.80;99.90
24262;DHT22;12385;51.412;5.540;2023-02-20T01:06:52;5.80;99.90
24262;DHT22;12385;51.412;5.540;2023-02-20T01:09:18;5.80;99.90
24262;DHT22;12385;51.412;5.540;2023-02-20T01:11:44;5.80;99.90
24262;DHT22;12385;51.412;5.540;2023-02-20T01:14:10;5.80;99.90
24262;DHT22;12385;51.412;5.540;2023-02-20T01:16:36;5.80;99.90
24262;DHT22;12385;51.412;5.540;2023-02-20T01:19:01;5.80;99.90
24262;DHT22;12385;51.412;5.540;2023-02-20T01:21:27;5.80;99.90
24262;DHT22;12385;51.412;5.540;2023-02-20T01:23:53;5.80;99.90
24262;DHT22;12385;51.412;5.540;2023-02-20T01:26:18;5.70;99.90
24262;DHT22;12385;51.412;5.540;2023-02-20T01:28:44;5.80;99.90
24262;DHT22;12385;51.412;5.540;2023-02-20T01:31:10;5.70;99.90
24262;DHT22;12385;51.412;5.540;2023-02-20T01:33:35;5.80;99.90
24262;DHT22;12385;51.412;5.540;2023-02-20T01:36:05;5.70;99.90
24262;DHT22;12385;51.412;5.540;2023-02-20T01:38:31;5.70;99.90
24262;DHT22;12385;51.412;5.540;2023-02-20T01:40:56;5.70;99.90
24262;DHT22;12385;51.412;5.540;2023-02-20T01:43:22;5.70;99.90
24262;DHT22;12385;51.412;5.540;2023-02-20T01:45:47;5.70;99.90
24262;DHT22;12385;51.412;5.540;2023-02-20T01:48:31;5.70;99.90
24262;DHT22;12385;51.412;5.540;2023-02-20T01:50:57;5.70;99.90
24262;DHT22;12385;51.412;5.540;2023-02-20T01:53:23;5.60;99.90
24262;DHT22;12385;51.412;5.540;2023-02-20T01:56:01;5.70;99.90
24262;DHT22;12385;51.412;5.540;2023-02-20T01:58:30;5.60;99.90
24262;DHT22;12385;51.412;5.540;2023-02-20T02:00:58;5.60;99.90
24262;DHT22;12385;51.412;5.540;2023-02-20T02:03:25;5.60;99.90
24262;DHT22;12385;51.412;5.540;2023-02-20T02:05:56;5.60;99.90
24262;DHT22;12385;51.412;5.540;2023-02-20T02:08:23;5.60;99.90
24262;DHT22;12385;51.412;5.540;2023-02-20T02:11:00;5.60;99.90
24262;DHT22;12385;51.412;5.540;2023-02-20T02:13:26;5.50;99.90
24262;DHT22;12385;51.412;5.540;2023-02-20T02:15:52;5.50;99.90
24262;DHT22;12385;51.412;5.540;2023-02-20T02:18:47;5.50;99.90
24262;DHT22;12385;51.412;5.540;2023-02-20T02:21:25;5.50;99.90
24262;DHT22;12385;51.412;5.540;2023-02-20T02:42:28;5.50;99.90
24262;DHT22;12385;51.412;5.540;2023-02-20T02:47:01;5.60;99.90
24262;DHT22;12385;51.412;5.540;2023-02-20T02:52:02;5.60;99.90
24262;DHT22;12385;51.412;5.540;2023-02-20T02:54:28;5.60;99.90
24262;DHT22;12385;51.412;5.540;2023-02-20T02:59:38;5.70;99.90
24262;DHT22;12385;51.412;5.540;2023-02-20T03:02:04;5.70;99.90
24262;DHT22;12385;51.412;5.540;2023-02-20T03:04:33;5.80;99.90
24262;DHT22;12385;51.412;5.540;2023-02-20T03:07:05;5.80;99.90
24262;DHT22;12385;51.412;5.540;2023-02-20T03:09:33;5.80;99.90
24262;DHT22;12385;51.412;5.540;2023-02-20T03:12:00;5.90;99.90
24262;DHT22;12385;51.412;5.540;2023-02-20T03:14:30;5.90;99.90
24262;DHT22;12385;51.412;5.540;2023-02-20T03:17:34;5.90;99.90
24262;DHT22;12385;51.412;5.540;2023-02-20T03:20:04;6.00;99.90
24262;DHT22;12385;51.412;5.540;2023-02-20T03:25:09;6.10;99.90
24262;DHT22;12385;51.412;5.540;2023-02-20T03:27:37;6.10;99.90
24262;DHT22;12385;51.412;5.540;2023-02-20T03:32:38;6.10;99.90
24262;DHT22;12385;51.412;5.540;2023-02-20T03:35:25;6.10;99.90
24262;DHT22;12385;51.412;5.540;2023-02-20T03:38:09;6.20;99.90
24262;DHT22;12385;51.412;5.540;2023-02-20T03:40:55;6.20;99.90
24262;DHT22;12385;51.412;5.540;2023-02-20T03:43:39;6.30;99.90
24262;DHT22;12385;51.412;5.540;2023-02-20T03:46:10;6.30;99.90
24262;DHT22;12385;51.412;5.540;2023-02-20T03:48:50;6.30;99.90
24262;DHT22;12385;51.412;5.540;2023-02-20T03:51:18;6.30;99.90
24262;DHT22;12385;51.412;5.540;2023-02-20T03:53:43;6.40;99.90
24262;DHT22;12385;51.412;5.540;2023-02-20T03:56:11;6.40;99.90
24262;DHT22;12385;51.412;5.540;2023-02-20T03:58:39;6.40;99.90
24262;DHT22;12385;51.412;5.540;2023-02-20T04:01:05;6.40;99.90
24262;DHT22;12385;51.412;5.540;2023-02-20T04:03:34;6.40;99.90
24262;DHT22;12385;51.412;5.540;2023-02-20T04:06:01;6.40;99.90
24262;DHT22;12385;51.412;5.540;2023-02-20T04:08:30;6.40;99.90
24262;DHT22;12385;51.412;5.540;2023-02-20T04:13:55;6.40;99.90
24262;DHT22;12385;51.412;5.540;2023-02-20T04:16:21;6.40;99.90
24262;DHT22;12385;51.412;5.540;2023-02-20T04:18:47;6.40;99.90
24262;DHT22;12385;51.412;5.540;2023-02-20T04:21:34;6.40;99.90
24262;DHT22;12385;51.412;5.540;2023-02-20T04:24:03;6.40;99.90
24262;DHT22;12385;51.412;5.540;2023-02-20T04:26:30;6.40;99.90
24262;DHT22;12385;51.412;5.540;2023-02-20T04:28:56;6.40;99.90
24262;DHT22;12385;51.412;5.540;2023-02-20T04:31:22;6.40;99.90
24262;DHT22;12385;51.412;5.540;2023-02-20T04:33:47;6.40;99.90
24262;DHT22;12385;51.412;5.540;2023-02-20T04:36:14;6.40;99.90
24262;DHT22;12385;51.412;5.540;2023-02-20T04:38:39;6.40;99.90
24262;DHT22;12385;51.412;5.540;2023-02-20T04:41:05;6.40;99.90
24262;DHT22;12385;51.412;5.540;2023-02-20T04:43:30;6.40;99.90
24262;DHT22;12385;51.412;5.540;2023-02-20T04:45:56;6.50;99.90
24262;DHT22;12385;51.412;5.540;2023-02-20T04:48:21;6.50;99.90
24262;DHT22;12385;51.412;5.540;2023-02-20T04:50:47;6.50;99.90
24262;DHT22;12385;51.412;5.540;2023-02-20T04:53:12;6.50;99.90
24262;DHT22;12385;51.412;5.540;2023-02-20T04:55:39;6.50;99.90
24262;DHT22;12385;51.412;5.540;2023-02-20T04:58:04;6.60;99.90
24262;DHT22;12385;51.412;5.540;2023-02-20T05:00:30;6.60;99.90
24262;DHT22;12385;51.412;5.540;2023-02-20T05:02:56;6.60;99.90
24262;DHT22;12385;51.412;5.540;2023-02-20T05:05:23;6.60;99.90
24262;DHT22;12385;51.412;5.540;2023-02-20T05:07:52;6.70;99.90
24262;DHT22;12385;51.412;5.540;2023-02-20T05:10:19;6.70;99.90
24262;DHT22;12385;51.412;5.540;2023-02-20T05:12:45;6.70;99.90
24262;DHT22;12385;51.412;5.540;2023-02-20T05:15:10;6.70;99.90
24262;DHT22;12385;51.412;5.540;2023-02-20T05:17:36;6.70;99.90
24262;DHT22;12385;51.412;5.540;2023-02-20T05:20:02;6.70;99.90
24262;DHT22;12385;51.412;5.540;2023-02-20T05:22:28;6.80;99.90
24262;DHT22;12385;51.412;5.540;2023-02-20T05:24:54;6.80;99.90
24262;DHT22;12385;51.412;5.540;2023-02-20T05:27:20;6.80;99.90
24262;DHT22;12385;51.412;5.540;2023-02-20T05:29:47;6.80;99.90
24262;DHT22;12385;51.412;5.540;2023-02-20T05:32:13;6.90;99.90
24262;DHT22;12385;51.412;5.540;2023-02-20T05:34:39;6.90;99.90
24262;DHT22;12385;51.412;5.540;2023-02-20T05:37:05;6.90;99.90
24262;DHT22;12385;51.412;5.540;2023-02-20T05:39:30;6.90;99.90
24262;DHT22;12385;51.412;5.540;2023-02-20T05:41:56;6.90;99.90
24262;DHT22;12385;51.412;5.540;2023-02-20T05:44:21;6.90;99.90
24262;DHT22;12385;51.412;5.540;2023-02-20T05:46:47;6.90;99.90
24262;DHT22;12385;51.412;5.540;2023-02-20T05:49:12;7.00;99.90
24262;DHT22;12385;51.412;5.540;2023-02-20T05:51:38;7.00;99.90
24262;DHT22;12385;51.412;5.540;2023-02-20T05:54:04;7.00;99.90
24262;DHT22;12385;51.412;5.540;2023-02-20T05:56:29;7.10;99.90
24262;DHT22;12385;51.412;5.540;2023-02-20T05:58:57;7.00;99.90
24262;DHT22;12385;51.412;5.540;2023-02-20T06:01:27;7.10;99.90
24262;DHT22;12385;51.412;5.540;2023-02-20T06:03:52;7.10;99.90
24262;DHT22;12385;51.412;5.540;2023-02-20T06:06:19;7.10;99.90
24262;DHT22;12385;51.412;5.540;2023-02-20T06:08:45;7.10;99.90
24262;DHT22;12385;51.412;5.540;2023-02-20T06:11:11;7.10;99.90
24262;DHT22;12385;51.412;5.540;2023-02-20T06:13:43;7.20;99.90
24262;DHT22;12385;51.412;5.540;2023-02-20T06:16:09;7.20;99.90
24262;DHT22;12385;51.412;5.540;2023-02-20T06:18:41;7.20;99.90
24262;DHT22;12385;51.412;5.540;2023-02-20T06:21:07;7.20;99.90
24262;DHT22;12385;51.412;5.540;2023-02-20T06:23:33;7.20;99.90
24262;DHT22;12385;51.412;5.540;2023-02-20T06:25:58;7.20;99.90
24262;DHT22;12385;51.412;5.540;2023-02-20T06:28:24;7.20;99.90
24262;DHT22;12385;51.412;5.540;2023-02-20T06:30:49;7.30;99.90
24262;DHT22;12385;51.412;5.540;2023-02-20T06:33:15;7.30;99.90
24262;DHT22;12385;51.412;5.540;2023-02-20T06:35:41;7.30;99.90
24262;DHT22;12385;51.412;5.540;2023-02-20T06:38:09;7.30;99.90
24262;DHT22;12385;51.412;5.540;2023-02-20T06:40:34;7.30;99.90
24262;DHT22;12385;51.412;5.540;2023-02-20T06:43:00;7.30;99.90
24262;DHT22;12385;51.412;5.540;2023-02-20T06:45:25;7.30;99.90
24262;DHT22;12385;51.412;5.540;2023-02-20T06:47:51;7.40;99.90
24262;DHT22;12385;51.412;5.540;2023-02-20T06:50:16;7.40;99.90
24262;DHT22;12385;51.412;5.540;2023-02-20T06:52:43;7.40;99.90
24262;DHT22;12385;51.412;5.540;2023-02-20T06:55:08;7.40;99.90
24262;DHT22;12385;51.412;5.540;2023-02-20T06:57:34;7.30;99.90
24262;DHT22;12385;51.412;5.540;2023-02-20T07:00:00;7.40;99.90
24262;DHT22;12385;51.412;5.540;2023-02-20T07:02:25;7.40;99.90
24262;DHT22;12385;51.412;5.540;2023-02-20T07:04:51;7.40;99.90
24262;DHT22;12385;51.412;5.540;2023-02-20T07:07:16;7.40;99.90
24262;DHT22;12385;51.412;5.540;2023-02-20T07:09:42;7.40;99.90
24262;DHT22;12385;51.412;5.540;2023-02-20T07:12:07;7.50;99.90
24262;DHT22;12385;51.412;5.540;2023-02-20T07:14:33;7.50;99.90
24262;DHT22;12385;51.412;5.540;2023-02-20T07:16:58;7.50;99.90
24262;DHT22;12385;51.412;5.540;2023-02-20T07:19:24;7.50;99.90
24262;DHT22;12385;51.412;5.540;2023-02-20T07:21:49;7.50;99.90
24262;DHT22;12385;51.412;5.540;2023-02-20T07:24:15;7.50;99.90
24262;DHT22;12385;51.412;5.540;2023-02-20T07:26:40;7.50;99.90
24262;DHT22;12385;51.412;5.540;2023-02-20T07:29:06;7.50;99.90
24262;DHT22;12385;51.412;5.540;2023-02-20T07:31:32;7.60;99.90
24262;DHT22;12385;51.412;5.540;2023-02-20T07:33:57;7.60;99.90
24262;DHT22;12385;51.412;5.540;2023-02-20T07:36:23;7.60;99.90
24262;DHT22;12385;51.412;5.540;2023-02-20T07:38:53;7.60;99.90
24262;DHT22;12385;51.412;5.540;2023-02-20T07:41:19;7.60;99.90
24262;DHT22;12385;51.412;5.540;2023-02-20T07:43:44;7.60;99.90
24262;DHT22;12385;51.412;5.540;2023-02-20T07:46:09;7.60;99.90
24262;DHT22;12385;51.412;5.540;2023-02-20T07:48:35;7.60;99.90
24262;DHT22;12385;51.412;5.540;2023-02-20T07:51:01;7.70;99.90
24262;DHT22;12385;51.412;5.540;2023-02-20T07:53:27;7.70;99.90
24262;DHT22;12385;51.412;5.540;2023-02-20T07:55:52;7.70;99.90
24262;DHT22;12385;51.412;5.540;2023-02-20T07:58:18;7.70;99.90
24262;DHT22;12385;51.412;5.540;2023-02-20T08:00:43;7.70;99.90
24262;DHT22;12385;51.412;5.540;2023-02-20T08:03:09;7.70;99.90
24262;DHT22;12385;51.412;5.540;2023-02-20T08:05:35;7.70;99.90
24262;DHT22;12385;51.412;5.540;2023-02-20T08:08:00;7.80;99.90
24262;DHT22;12385;51.412;5.540;2023-02-20T08:10:26;7.80;99.90
24262;DHT22;12385;51.412;5.540;2023-02-20T08:12:53;7.80;99.90
24262;DHT22;12385;51.412;5.540;2023-02-20T08:15:20;7.80;99.90
24262;DHT22;12385;51.412;5.540;2023-02-20T08:17:46;7.80;99.90
24262;DHT22;12385;51.412;5.540;2023-02-20T08:20:13;7.90;99.90
24262;DHT22;12385;51.412;5.540;2023-02-20T08:22:39;7.90;99.90
24262;DHT22;12385;51.412;5.540;2023-02-20T08:25:04;7.90;99.90
24262;DHT22;12385;51.412;5.540;2023-02-20T08:27:30;7.90;99.90
24262;DHT22;12385;51.412;5.540;2023-02-20T08:29:57;8.00;99.90
24262;DHT22;12385;51.412;5.540;2023-02-20T08:32:22;8.00;99.90
24262;DHT22;12385;51.412;5.540;2023-02-20T08:34:48;8.00;99.90
24262;DHT22;12385;51.412;5.540;2023-02-20T08:37:13;8.00;99.90
24262;DHT22;12385;51.412;5.540;2023-02-20T08:39:39;8.00;99.90
24262;DHT22;12385;51.412;5.540;2023-02-20T08:42:05;8.10;99.90
24262;DHT22;12385;51.412;5.540;2023-02-20T08:44:31;8.00;99.90
24262;DHT22;12385;51.412;5.540;2023-02-20T08:46:56;8.10;99.90
24262;DHT22;12385;51.412;5.540;2023-02-20T08:49:22;8.20;99.90
24262;DHT22;12385;51.412;5.540;2023-02-20T08:51:47;8.20;99.90
24262;DHT22;12385;51.412;5.540;2023-02-20T08:54:16;8.20;99.90
24262;DHT22;12385;51.412;5.540;2023-02-20T08:56:43;8.20;99.90
24262;DHT22;12385;51.412;5.540;2023-02-20T08:59:08;8.20;99.90
24262;DHT22;12385;51.412;5.540;2023-02-20T09:01:34;8.20;99.90
24262;DHT22;12385;51.412;5.540;2023-02-20T09:04:00;8.30;99.90
24262;DHT22;12385;51.412;5.540;2023-02-20T09:06:26;8.30;99.90
24262;DHT22;12385;51.412;5.540;2023-02-20T09:08:53;8.30;99.90
24262;DHT22;12385;51.412;5.540;2023-02-20T09:11:19;8.40;99.90
24262;DHT22;12385;51.412;5.540;2023-02-20T09:13:46;8.40;99.90
24262;DHT22;12385;51.412;5.540;2023-02-20T09:16:13;8.50;99.90
24262;DHT22;12385;51.412;5.540;2023-02-20T09:18:38;8.40;99.90
24262;DHT22;12385;51.412;5.540;2023-02-20T09:21:07;8.50;99.90
24262;DHT22;12385;51.412;5.540;2023-02-20T09:23:33;8.50;99.90
24262;DHT22;12385;51.412;5.540;2023-02-20T09:25:58;8.50;99.90
24262;DHT22;12385;51.412;5.540;2023-02-20T09:28:24;8.50;99.90
24262;DHT22;12385;51.412;5.540;2023-02-20T09:30:50;8.50;99.90
24262;DHT22;12385;51.412;5.540;2023-02-20T09:33:19;8.50;99.90
24262;DHT22;12385;51.412;5.540;2023-02-20T09:35:44;8.50;99.90
24262;DHT22;12385;51.412;5.540;2023-02-20T09:38:10;8.60;99.90
24262;DHT22;12385;51.412;5.540;2023-02-20T09:40:35;8.60;99.90
24262;DHT22;12385;51.412;5.540;2023-02-20T09:45:27;8.60;99.90
24262;DHT22;12385;51.412;5.540;2023-02-20T09:48:00;8.60;99.90
24262;DHT22;12385;51.412;5.540;2023-02-20T09:50:43;8.60;99.90
24262;DHT22;12385;51.412;5.540;2023-02-20T09:53:32;8.60;99.90
24262;DHT22;12385;51.412;5.540;2023-02-20T09:55:59;8.60;99.90
24262;DHT22;12385;51.412;5.540;2023-02-20T10:00:51;8.70;99.90
24262;DHT22;12385;51.412;5.540;2023-02-20T10:03:21;8.70;99.90
24262;DHT22;12385;51.412;5.540;2023-02-20T10:05:49;8.70;99.90
24262;DHT22;12385;51.412;5.540;2023-02-20T10:08:18;8.70;99.90
24262;DHT22;12385;51.412;5.540;2023-02-20T10:10:44;8.80;99.90
24262;DHT22;12385;51.412;5.540;2023-02-20T10:16:03;8.80;99.90
24262;DHT22;12385;51.412;5.540;2023-02-20T10:26:12;8.90;99.90
24262;DHT22;12385;51.412;5.540;2023-02-20T10:28:39;9.00;99.90
24262;DHT22;12385;51.412;5.540;2023-02-20T10:33:43;9.00;99.90
24262;DHT22;12385;51.412;5.540;2023-02-20T10:44:09;9.10;99.90
24262;DHT22;12385;51.412;5.540;2023-02-20T10:46:41;9.00;99.90
24262;DHT22;12385;51.412;5.540;2023-02-20T10:49:10;9.10;99.90
24262;DHT22;12385;51.412;5.540;2023-02-20T10:51:38;9.10;99.90
24262;DHT22;12385;51.412;5.540;2023-02-20T10:54:22;9.20;99.90
24262;DHT22;12385;51.412;5.540;2023-02-20T10:56:51;9.20;99.90
24262;DHT22;12385;51.412;5.540;2023-02-20T11:01:54;9.20;99.90
24262;DHT22;12385;51.412;5.540;2023-02-20T11:06:46;9.20;99.90
24262;DHT22;12385;51.412;5.540;2023-02-20T11:09:12;9.20;99.90
24262;DHT22;12385;51.412;5.540;2023-02-20T11:11:39;9.10;99.90
24262;DHT22;12385;51.412;5.540;2023-02-20T11:19:20;9.20;99.90
24262;DHT22;12385;51.412;5.540;2023-02-20T11:21:47;9.10;99.90
24262;DHT22;12385;51.412;5.540;2023-02-20T11:24:16;9.10;99.90
24262;DHT22;12385;51.412;5.540;2023-02-20T11:26:42;9.10;99.90
24262;DHT22;12385;51.412;5.540;2023-02-20T11:31:34;9.20;99.90
24262;DHT22;12385;51.412;5.540;2023-02-20T11:34:00;9.10;99.90
24262;DHT22;12385;51.412;5.540;2023-02-20T11:36:26;9.10;99.90
24262;DHT22;12385;51.412;5.540;2023-02-20T11:38:56;9.10;99.90
24262;DHT22;12385;51.412;5.540;2023-02-20T11:41:26;9.10;99.90
24262;DHT22;12385;51.412;5.540;2023-02-20T11:46:34;9.20;99.90
24262;DHT22;12385;51.412;5.540;2023-02-20T11:49:06;9.20;99.90
24262;DHT22;12385;51.412;5.540;2023-02-20T11:51:34;9.20;99.90
24262;DHT22;12385;51.412;5.540;2023-02-20T11:54:14;9.20;99.90
24262;DHT22;12385;51.412;5.540;2023-02-20T11:56:53;9.20;99.90
24262;DHT22;12385;51.412;5.540;2023-02-20T12:04:59;9.20;99.90
24262;DHT22;12385;51.412;5.540;2023-02-20T12:07:33;9.20;99.90
24262;DHT22;12385;51.412;5.540;2023-02-20T12:10:02;9.20;99.90
24262;DHT22;12385;51.412;5.540;2023-02-20T12:12:29;9.20;99.90
24262;DHT22;12385;51.412;5.540;2023-02-20T12:14:57;9.30;99.90
24262;DHT22;12385;51.412;5.540;2023-02-20T12:20:18;9.30;99.90
24262;DHT22;12385;51.412;5.540;2023-02-20T12:22:46;9.30;99.90
24262;DHT22;12385;51.412;5.540;2023-02-20T12:30:24;9.40;99.90
24262;DHT22;12385;51.412;5.540;2023-02-20T12:35:30;9.40;99.90
24262;DHT22;12385;51.412;5.540;2023-02-20T12:48:11;9.50;99.90
24262;DHT22;12385;51.412;5.540;2023-02-20T12:50:40;9.50;99.90
24262;DHT22;12385;51.412;5.540;2023-02-20T13:01:04;9.60;99.90
24262;DHT22;12385;51.412;5.540;2023-02-20T13:05:55;9.60;99.90
24262;DHT22;12385;51.412;5.540;2023-02-20T13:11:00;9.70;99.90
24262;DHT22;12385;51.412;5.540;2023-02-20T13:13:40;9.70;99.90
24262;DHT22;12385;51.412;5.540;2023-02-20T13:16:12;9.70;99.90
24262;DHT22;12385;51.412;5.540;2023-02-20T13:18:42;9.80;99.90
24262;DHT22;12385;51.412;5.540;2023-02-20T13:21:13;9.80;99.90
24262;DHT22;12385;51.412;5.540;2023-02-20T13:23:39;9.80;99.90
24262;DHT22;12385;51.412;5.540;2023-02-20T13:26:42;9.80;99.90
24262;DHT22;12385;51.412;5.540;2023-02-20T13:29:09;9.90;99.90
24262;DHT22;12385;51.412;5.540;2023-02-20T13:39:24;9.90;99.90
24262;DHT22;12385;51.412;5.540;2023-02-20T13:47:01;9.90;99.90
24262;DHT22;12385;51.412;5.540;2023-02-20T13:55:09;9.90;99.90
24262;DHT22;12385;51.412;5.540;2023-02-20T14:00:15;9.90;99.90
24262;DHT22;12385;51.412;5.540;2023-02-20T14:02:42;9.90;99.90
24262;DHT22;12385;51.412;5.540;2023-02-20T14:05:16;9.90;99.90
24262;DHT22;12385;51.412;5.540;2023-02-20T14:07:43;9.90;99.90
24262;DHT22;12385;51.412;5.540;2023-02-20T14:12:58;9.80;99.90
24262;DHT22;12385;51.412;5.540;2023-02-20T14:15:24;9.80;99.90
24262;DHT22;12385;51.412;5.540;2023-02-20T14:17:50;9.90;99.90
24262;DHT22;12385;51.412;5.540;2023-02-20T14:20:18;9.90;99.90
24262;DHT22;12385;51.412;5.540;2023-02-20T14:22:44;9.90;99.90
24262;DHT22;12385;51.412;5.540;2023-02-20T14:27:38;9.80;99.90
24262;DHT22;12385;51.412;5.540;2023-02-20T14:32:30;9.90;99.90
24262;DHT22;12385;51.412;5.540;2023-02-20T14:35:05;9.90;99.90
24262;DHT22;12385;51.412;5.540;2023-02-20T14:37:35;9.90;99.90
24262;DHT22;12385;51.412;5.540;2023-02-20T14:42:32;9.90;99.90
24262;DHT22;12385;51.412;5.540;2023-02-20T14:45:03;9.90;99.90
24262;DHT22;12385;51.412;5.540;2023-02-20T14:47:30;9.80;99.90
24262;DHT22;12385;51.412;5.540;2023-02-20T14:50:18;9.90;99.90
24262;DHT22;12385;51.412;5.540;2023-02-20T14:52:44;9.90;99.90
24262;DHT22;12385;51.412;5.540;2023-02-20T14:55:14;10.00;99.90
24262;DHT22;12385;51.412;5.540;2023-02-20T14:57:39;9.90;99.90
24262;DHT22;12385;51.412;5.540;2023-02-20T15:00:09;9.90;99.90
24262;DHT22;12385;51.412;5.540;2023-02-20T15:02:35;9.90;99.90
24262;DHT22;12385;51.412;5.540;2023-02-20T15:05:02;9.90;99.90
24262;DHT22;12385;51.412;5.540;2023-02-20T15:07:28;9.90;99.90
24262;DHT22;12385;51.412;5.540;2023-02-20T15:09:55;9.90;99.90
24262;DHT22;12385;51.412;5.540;2023-02-20T15:12:28;10.00;99.90
24262;DHT22;12385;51.412;5.540;2023-02-20T15:15:00;10.00;99.90
24262;DHT22;12385;51.412;5.540;2023-02-20T15:17:27;10.00;99.90
24262;DHT22;12385;51.412;5.540;2023-02-20T15:19:53;10.00;99.90
24262;DHT22;12385;51.412;5.540;2023-02-20T15:22:32;10.00;99.90
24262;DHT22;12385;51.412;5.540;2023-02-20T15:25:11;10.00;99.90
24262;DHT22;12385;51.412;5.540;2023-02-20T15:27:37;9.90;99.90
24262;DHT22;12385;51.412;5.540;2023-02-20T15:30:10;10.00;99.90
24262;DHT22;12385;51.412;5.540;2023-02-20T15:32:37;10.00;99.90
24262;DHT22;12385;51.412;5.540;2023-02-20T15:35:04;10.00;99.90
24262;DHT22;12385;51.412;5.540;2023-02-20T15:37:31;10.00;99.90
24262;DHT22;12385;51.412;5.540;2023-02-20T15:40:09;10.00;99.90
24262;DHT22;12385;51.412;5.540;2023-02-20T15:42:40;10.00;99.90
24262;DHT22;12385;51.412;5.540;2023-02-20T15:45:06;10.00;99.90
24262;DHT22;12385;51.412;5.540;2023-02-20T15:47:32;10.00;99.90
24262;DHT22;12385;51.412;5.540;2023-02-20T15:49:57;10.00;99.90
24262;DHT22;12385;51.412;5.540;2023-02-20T15:52:23;10.00;99.90
24262;DHT22;12385;51.412;5.540;2023-02-20T15:54:53;10.00;99.90
24262;DHT22;12385;51.412;5.540;2023-02-20T15:57:19;10.00;99.90
24262;DHT22;12385;51.412;5.540;2023-02-20T15:59:45;10.00;99.90
24262;DHT22;12385;51.412;5.540;2023-02-20T16:02:18;10.00;99.90
24262;DHT22;12385;51.412;5.540;2023-02-20T16:04:46;9.90;99.90
24262;DHT22;12385;51.412;5.540;2023-02-20T16:07:12;10.00;99.90
24262;DHT22;12385;51.412;5.540;2023-02-20T16:09:37;10.00;99.90
24262;DHT22;12385;51.412;5.540;2023-02-20T16:12:03;9.90;99.90
24262;DHT22;12385;51.412;5.540;2023-02-20T16:14:28;9.90;99.90
24262;DHT22;12385;51.412;5.540;2023-02-20T16:16:54;10.00;99.90
24262;DHT22;12385;51.412;5.540;2023-02-20T16:19:20;10.00;99.90
24262;DHT22;12385;51.412;5.540;2023-02-20T16:21:46;10.00;99.90
24262;DHT22;12385;51.412;5.540;2023-02-20T16:24:12;9.90;99.90
24262;DHT22;12385;51.412;5.540;2023-02-20T16:26:39;9.90;99.90
24262;DHT22;12385;51.412;5.540;2023-02-20T16:29:06;9.90;99.90
24262;DHT22;12385;51.412;5.540;2023-02-20T16:34:17;9.90;99.90
24262;DHT22;12385;51.412;5.540;2023-02-20T16:36:42;10.00;99.90
24262;DHT22;12385;51.412;5.540;2023-02-20T16:39:08;9.90;99.90
24262;DHT22;12385;51.412;5.540;2023-02-20T16:41:33;9.90;99.90
24262;DHT22;12385;51.412;5.540;2023-02-20T16:44:00;9.90;99.90
24262;DHT22;12385;51.412;5.540;2023-02-20T16:46:25;9.90;99.90
24262;DHT22;12385;51.412;5.540;2023-02-20T16:48:51;9.90;99.90
24262;DHT22;12385;51.412;5.540;2023-02-20T16:51:16;9.90;99.90
24262;DHT22;12385;51.412;5.540;2023-02-20T16:53:44;10.00;99.90
24262;DHT22;12385;51.412;5.540;2023-02-20T16:56:09;10.00;99.90
24262;DHT22;12385;51.412;5.540;2023-02-20T16:58:35;9.90;99.90
24262;DHT22;12385;51.412;5.540;2023-02-20T17:01:00;9.90;99.90
24262;DHT22;12385;51.412;5.540;2023-02-20T17:03:26;9.90;99.90
24262;DHT22;12385;51.412;5.540;2023-02-20T17:05:56;9.90;99.90
24262;DHT22;12385;51.412;5.540;2023-02-20T17:08:25;9.90;99.90
24262;DHT22;12385;51.412;5.540;2023-02-20T17:10:51;10.00;99.90
24262;DHT22;12385;51.412;5.540;2023-02-20T17:13:17;9.90;99.90
24262;DHT22;12385;51.412;5.540;2023-02-20T17:15:42;10.00;99.90
24262;DHT22;12385;51.412;5.540;2023-02-20T17:18:09;9.90;99.90
24262;DHT22;12385;51.412;5.540;2023-02-20T17:20:34;9.90;99.90
24262;DHT22;12385;51.412;5.540;2023-02-20T17:23:01;10.00;99.90
24262;DHT22;12385;51.412;5.540;2023-02-20T17:25:29;10.00;99.90
24262;DHT22;12385;51.412;5.540;2023-02-20T17:27:55;10.00;99.90
24262;DHT22;12385;51.412;5.540;2023-02-20T17:30:21;9.90;99.90
24262;DHT22;12385;51.412;5.540;2023-02-20T17:32:46;10.00;99.90
24262;DHT22;12385;51.412;5.540;2023-02-20T17:35:13;10.00;99.90
24262;DHT22;12385;51.412;5.540;2023-02-20T17:37:39;10.00;99.90
24262;DHT22;12385;51.412;5.540;2023-02-20T17:40:05;10.00;99.90
24262;DHT22;12385;51.412;5.540;2023-02-20T17:42:31;9.90;99.90
24262;DHT22;12385;51.412;5.540;2023-02-20T17:44:56;10.00;99.90
24262;DHT22;12385;51.412;5.540;2023-02-20T17:47:22;10.00;99.90
24262;DHT22;12385;51.412;5.540;2023-02-20T17:49:48;10.00;99.90
24262;DHT22;12385;51.412;5.540;2023-02-20T17:52:14;10.00;99.90
24262;DHT22;12385;51.412;5.540;2023-02-20T17:54:43;10.00;99.90
24262;DHT22;12385;51.412;5.540;2023-02-20T17:57:09;10.00;99.90
24262;DHT22;12385;51.412;5.540;2023-02-20T17:59:38;10.00;99.90
24262;DHT22;12385;51.412;5.540;2023-02-20T18:02:04;10.00;99.90
24262;DHT22;12385;51.412;5.540;2023-02-20T18:04:32;10.00;99.90
24262;DHT22;12385;51.412;5.540;2023-02-20T18:06:57;9.90;99.90
24262;DHT22;12385;51.412;5.540;2023-02-20T18:09:23;9.90;99.90
24262;DHT22;12385;51.412;5.540;2023-02-20T18:11:49;9.90;99.90
24262;DHT22;12385;51.412;5.540;2023-02-20T18:14:15;10.00;99.90
24262;DHT22;12385;51.412;5.540;2023-02-20T18:16:41;10.00;99.90